Time;durP1;ratioP1;P1;durP2;ratioP2;P2;SDS_P1;SDS_P2;PMS_P1;PMS_P2;Temp;Humidity;BMP_temperature;BMP_pressure;BME280_temperature;BME280_humidity;BME280_pressure;Samples;Min_cycle;Max_cycle;Signal;HPM_P1;HPM_P2
2022/07/13 00:00:00;;;;;;;3.27;2.80;;;25.10;64.40;;;;;;5084625;28;20181;-91
2022/07/13 00:02:29;;;;;;;3.70;2.93;;;24.80;68.90;;;;;;5307569;22;20237;-92
2022/07/13 00:04:55;;;;;;;4.00;2.93;;;24.60;66.90;;;;;;5104126;28;20618;-92
2022/07/13 00:07:21;;;;;;;4.67;3.10;;;24.40;68.50;;;;;;5104351;28;20181;-92
2022/07/13 00:09:47;;;;;;;2.63;2.43;;;24.50;72.70;;;;;;5103868;28;20169;-92
2022/07/13 00:12:12;;;;;;;3.60;3.07;;;24.60;72.00;;;;;;5103995;28;20287;-92
2022/07/13 00:14:38;;;;;;;2.83;2.63;;;24.80;71.40;;;;;;5103151;28;20275;-92
2022/07/13 00:17:04;;;;;;;3.00;2.77;;;24.90;71.30;;;;;;5104491;28;20209;-92
2022/07/13 00:19:30;;;;;;;4.27;2.70;;;25.00;71.00;;;;;;5104387;28;20182;-92
2022/07/13 00:21:55;;;;;;;2.70;2.50;;;25.10;70.20;;;;;;5104868;28;20174;-92
2022/07/13 00:24:22;;;;;;;3.43;2.53;;;25.20;70.00;;;;;;5104087;28;20177;-92
2022/07/13 00:26:48;;;;;;;2.80;2.60;;;25.20;69.80;;;;;;5105339;28;20221;-92
2022/07/13 00:29:15;;;;;;;2.77;2.57;;;25.20;69.80;;;;;;5105036;28;20240;-92
2022/07/13 00:31:42;;;;;;;2.97;2.60;;;25.30;69.90;;;;;;5104696;28;20173;-92
2022/07/13 00:34:08;;;;;;;2.60;2.40;;;25.20;69.70;;;;;;5104809;28;20216;-92
2022/07/13 00:36:34;;;;;;;3.87;2.60;;;25.30;69.80;;;;;;5105261;28;20202;-92
2022/07/13 00:39:00;;;;;;;3.63;2.63;;;25.30;69.80;;;;;;5104522;28;20473;-92
2022/07/13 00:41:25;;;;;;;2.70;2.50;;;25.30;69.50;;;;;;5104468;28;20201;-91
2022/07/13 00:43:52;;;;;;;2.50;2.30;;;25.30;69.60;;;;;;5102734;28;20291;-92
2022/07/13 00:46:18;;;;;;;3.13;2.80;;;25.40;69.60;;;;;;5103061;28;20174;-92
2022/07/13 00:48:44;;;;;;;2.87;2.67;;;25.30;69.50;;;;;;5104508;28;20212;-92
2022/07/13 00:51:09;;;;;;;3.30;2.80;;;25.40;69.60;;;;;;5119217;28;20171;-92
2022/07/13 00:53:39;;;;;;;3.07;2.77;;;25.40;69.60;;;;;;5100724;28;20272;-92
2022/07/13 00:56:05;;;;;;;7.07;3.30;;;25.40;69.60;;;;;;5100242;28;20170;-92
2022/07/13 00:58:32;;;;;;;3.10;2.80;;;25.30;75.70;;;;;;5100914;28;20238;-92
2022/07/13 01:00:58;;;;;;;3.30;3.00;;;24.50;80.30;;;;;;5100881;28;20420;-93
2022/07/13 01:03:24;;;;;;;3.03;2.83;;;24.50;81.80;;;;;;5100567;28;20189;-93
2022/07/13 01:05:54;;;;;;;3.00;2.70;;;24.60;80.40;;;;;;5101781;28;20174;-93
2022/07/13 01:08:20;;;;;;;2.83;2.63;;;24.70;77.80;;;;;;5101680;28;20217;-93
2022/07/13 01:10:48;;;;;;;5.50;3.00;;;24.90;77.20;;;;;;5102164;28;20170;-93
2022/07/13 01:13:16;;;;;;;3.20;2.90;;;24.90;76.70;;;;;;5101495;28;20261;-92
2022/07/13 01:15:42;;;;;;;2.80;2.60;;;25.00;76.20;;;;;;5100754;28;20167;-93
2022/07/13 01:18:12;;;;;;;3.37;2.77;;;25.10;75.60;;;;;;5101193;28;20202;-93
2022/07/13 01:20:41;;;;;;;3.37;2.57;;;25.10;75.40;;;;;;5100800;28;20217;-92
2022/07/13 01:23:11;;;;;;;3.30;2.90;;;25.10;75.10;;;;;;5100762;28;20210;-93
2022/07/13 01:25:37;;;;;;;2.80;2.47;;;25.20;75.70;;;;;;5099994;28;20180;-93
2022/07/13 01:28:03;;;;;;;2.67;2.47;;;25.20;76.10;;;;;;5100821;28;20246;-93
2022/07/13 01:30:29;;;;;;;2.97;2.67;;;25.20;76.70;;;;;;5101423;28;20230;-93
2022/07/13 01:32:54;;;;;;;3.87;2.80;;;25.20;75.80;;;;;;5101009;28;20167;-93
2022/07/13 01:35:22;;;;;;;3.30;2.83;;;25.20;76.10;;;;;;5101584;28;20170;-93
2022/07/13 01:37:50;;;;;;;3.70;2.93;;;25.20;76.90;;;;;;5101397;28;20200;-93
2022/07/13 01:40:16;;;;;;;4.00;2.57;;;25.20;77.90;;;;;;5101543;28;20166;-93
2022/07/13 01:42:47;;;;;;;3.10;2.80;;;25.20;76.80;;;;;;5100932;28;20203;-93
2022/07/13 01:45:15;;;;;;;3.13;2.50;;;25.20;76.80;;;;;;5099311;28;20197;-93
2022/07/13 01:47:47;;;;;;;3.07;2.77;;;25.20;76.90;;;;;;5099403;28;20229;-93
2022/07/13 01:50:14;;;;;;;3.57;2.83;;;25.10;78.40;;;;;;5100537;28;20202;-92
2022/07/13 01:52:40;;;;;;;3.57;3.07;;;25.10;79.30;;;;;;5118058;28;20482;-92
2022/07/13 01:55:08;;;;;;;3.07;2.87;;;25.10;78.70;;;;;;5100796;28;20215;-93
2022/07/13 01:57:35;;;;;;;3.83;3.00;;;25.10;78.30;;;;;;5100020;28;20281;-92
2022/07/13 02:00:10;;;;;;;3.10;2.80;;;25.10;78.40;;;;;;5099327;28;20537;-92
2022/07/13 02:02:36;;;;;;;2.90;2.60;;;25.10;78.60;;;;;;5098298;28;20224;-92
2022/07/13 02:05:02;;;;;;;3.17;2.87;;;25.10;79.20;;;;;;5098656;28;20209;-92
2022/07/13 02:07:28;;;;;;;3.23;2.80;;;25.10;79.20;;;;;;5098430;28;20213;-92
2022/07/13 02:09:53;;;;;;;2.90;2.70;;;25.10;78.90;;;;;;5098832;28;20171;-92
2022/07/13 02:12:19;;;;;;;2.60;2.40;;;25.10;78.90;;;;;;5099142;28;20232;-92
2022/07/13 02:14:46;;;;;;;3.00;2.60;;;25.20;79.30;;;;;;5098883;28;20174;-91
2022/07/13 02:17:13;;;;;;;2.90;2.70;;;25.20;79.60;;;;;;5117982;28;20162;-92
2022/07/13 02:19:38;;;;;;;2.50;2.30;;;25.20;79.60;;;;;;5100178;28;20166;-92
2022/07/13 02:22:04;;;;;;;4.67;2.70;;;25.20;79.60;;;;;;5100121;28;20162;-92
2022/07/13 02:24:30;;;;;;;3.30;3.00;;;25.20;80.50;;;;;;5099710;28;20166;-92
2022/07/13 02:26:57;;;;;;;3.70;2.80;;;25.20;81.40;;;;;;5099437;28;20166;-92
2022/07/13 02:29:25;;;;;;;3.50;3.20;;;25.10;81.60;;;;;;5100606;28;20208;-91
2022/07/13 02:31:51;;;;;;;3.00;2.70;;;25.20;81.50;;;;;;5100297;28;20170;-91
2022/07/13 02:34:17;;;;;;;3.50;3.10;;;25.10;82.50;;;;;;5100307;28;20331;-91
2022/07/13 02:37:01;;;;;;;3.50;3.20;;;25.10;82.00;;;;;;5100592;28;20193;-92
2022/07/13 02:39:27;;;;;;;3.60;3.30;;;25.00;84.00;;;;;;5099636;28;20552;-92
2022/07/13 02:41:53;;;;;;;4.13;3.50;;;24.90;84.60;;;;;;5100015;28;20284;-92
2022/07/13 02:44:18;;;;;;;4.10;3.60;;;24.50;90.40;;;;;;5100356;28;20170;-92
2022/07/13 02:46:44;;;;;;;4.77;3.73;;;23.90;92.20;;;;;;5099590;28;20273;-92
2022/07/13 02:49:10;;;;;;;4.73;3.50;;;23.40;93.30;;;;;;5099853;28;20472;-91
2022/07/13 02:51:36;;;;;;;4.23;3.53;;;23.40;93.90;;;;;;5099347;28;20170;-92
2022/07/13 02:54:02;;;;;;;3.60;3.00;;;23.30;94.30;;;;;;5099455;28;20473;-92
2022/07/13 02:56:28;;;;;;;3.73;3.33;;;23.40;93.70;;;;;;5099871;28;20170;-92
2022/07/13 02:58:53;;;;;;;3.50;3.20;;;23.70;92.70;;;;;;5100472;28;20427;-91
2022/07/13 03:01:19;;;;;;;3.40;3.10;;;23.90;91.80;;;;;;5099365;28;20174;-91
2022/07/13 03:03:45;;;;;;;3.50;3.20;;;24.10;91.10;;;;;;5099539;28;20281;-91
2022/07/13 03:06:11;;;;;;;3.20;2.90;;;24.30;90.50;;;;;;5099309;28;20174;-92
2022/07/13 03:08:37;;;;;;;3.30;3.00;;;24.40;90.10;;;;;;5099488;28;20213;-92
2022/07/13 03:11:04;;;;;;;3.33;3.00;;;24.50;89.40;;;;;;5098983;28;20166;-92
2022/07/13 03:13:30;;;;;;;4.67;3.13;;;24.50;88.80;;;;;;5099312;28;20170;-92
2022/07/13 03:15:56;;;;;;;3.20;3.00;;;24.60;88.90;;;;;;5097300;28;20181;-92
2022/07/13 03:18:22;;;;;;;3.70;3.30;;;24.60;88.20;;;;;;5098065;28;20238;-92
2022/07/13 03:20:47;;;;;;;3.17;2.87;;;24.60;88.30;;;;;;5098783;28;20178;-92
2022/07/13 03:23:13;;;;;;;3.23;2.93;;;24.70;88.10;;;;;;5098269;28;20166;-92
2022/07/13 03:25:39;;;;;;;3.30;3.00;;;24.70;87.50;;;;;;5096908;28;20208;-92
2022/07/13 03:28:05;;;;;;;3.17;2.87;;;24.70;86.90;;;;;;5097535;28;20208;-92
2022/07/13 03:30:30;;;;;;;3.60;3.00;;;24.70;86.80;;;;;;5097392;28;20174;-92
2022/07/13 03:32:56;;;;;;;3.33;2.97;;;24.70;86.40;;;;;;5098674;28;20594;-92
2022/07/13 03:35:22;;;;;;;3.63;3.10;;;24.80;86.70;;;;;;5097187;28;20175;-92
2022/07/13 03:37:48;;;;;;;3.20;2.90;;;24.80;86.30;;;;;;5098822;28;20202;-92
2022/07/13 03:40:14;;;;;;;3.20;2.80;;;24.80;86.30;;;;;;5116017;28;20266;-92
2022/07/13 03:42:39;;;;;;;3.30;3.00;;;24.80;86.10;;;;;;5098913;28;20197;-92
2022/07/13 03:45:06;;;;;;;3.50;2.70;;;24.80;85.90;;;;;;5099872;28;20463;-92
2022/07/13 03:47:32;;;;;;;3.20;2.90;;;24.80;86.00;;;;;;5100155;28;20198;-92
2022/07/13 03:49:57;;;;;;;3.23;2.93;;;24.80;86.20;;;;;;5100406;28;20166;-92
2022/07/13 03:52:23;;;;;;;3.40;3.10;;;24.80;86.30;;;;;;5099590;28;20240;-92
2022/07/13 03:54:49;;;;;;;3.53;3.00;;;24.80;86.20;;;;;;5098012;28;20166;-92
2022/07/13 03:57:15;;;;;;;3.93;3.00;;;24.80;87.20;;;;;;5098454;28;20244;-93
2022/07/13 03:59:41;;;;;;;4.20;2.97;;;24.80;86.80;;;;;;5098296;28;20174;-92
2022/07/13 04:02:07;;;;;;;3.17;2.87;;;24.80;86.70;;;;;;5097636;28;20181;-92
2022/07/13 04:04:33;;;;;;;3.40;3.10;;;24.80;86.50;;;;;;5098438;28;20186;-92
2022/07/13 04:06:58;;;;;;;3.43;2.97;;;24.80;86.50;;;;;;5097711;28;20166;-92
2022/07/13 04:09:24;;;;;;;4.10;3.20;;;24.80;86.30;;;;;;5097673;28;20251;-92
2022/07/13 04:11:50;;;;;;;3.10;2.80;;;24.80;86.20;;;;;;5098097;28;20485;-92
2022/07/13 04:14:16;;;;;;;3.17;2.90;;;24.80;86.70;;;;;;5097140;28;20278;-92
2022/07/13 04:16:42;;;;;;;5.20;3.20;;;24.80;86.60;;;;;;5099001;28;20184;-92
2022/07/13 04:19:08;;;;;;;3.77;3.00;;;24.80;86.70;;;;;;5098384;28;20264;-93
2022/07/13 04:21:33;;;;;;;3.40;3.10;;;24.80;86.60;;;;;;5098000;28;20461;-92
2022/07/13 04:23:59;;;;;;;4.53;2.87;;;24.80;86.60;;;;;;5098352;28;20171;-92
2022/07/13 04:26:25;;;;;;;3.80;2.97;;;24.80;86.50;;;;;;5098863;28;20430;-92
2022/07/13 04:28:51;;;;;;;3.83;3.30;;;24.80;86.60;;;;;;5102037;28;20220;-92
2022/07/13 04:31:17;;;;;;;3.57;3.17;;;24.80;86.60;;;;;;5102979;28;20174;-92
2022/07/13 04:33:43;;;;;;;3.37;3.07;;;24.80;86.60;;;;;;5100882;28;20166;-92
2022/07/13 04:36:08;;;;;;;3.47;3.17;;;24.80;87.00;;;;;;5100807;28;20316;-92
2022/07/13 04:38:35;;;;;;;3.33;3.10;;;24.80;87.00;;;;;;5102024;28;20182;-93
2022/07/13 04:41:00;;;;;;;3.83;2.90;;;24.80;87.20;;;;;;5103030;28;20267;-92
2022/07/13 04:43:27;;;;;;;3.80;3.03;;;24.80;86.80;;;;;;5101941;28;20212;-93
2022/07/13 04:45:53;;;;;;;3.10;2.73;;;24.80;86.80;;;;;;5098123;28;20198;-92
2022/07/13 04:48:19;;;;;;;3.20;2.90;;;24.80;86.80;;;;;;5098288;28;20236;-92
2022/07/13 04:50:44;;;;;;;3.93;2.80;;;24.90;86.70;;;;;;5097629;28;20224;-92
2022/07/13 04:53:10;;;;;;;3.20;2.90;;;24.90;86.70;;;;;;5097822;28;20198;-92
2022/07/13 04:55:39;;;;;;;2.87;2.67;;;24.80;85.40;;;;;;5099211;28;20551;-92
2022/07/13 04:58:07;;;;;;;4.80;2.63;;;24.90;86.20;;;;;;5098994;28;20453;-93
2022/07/13 05:00:34;;;;;;;2.97;2.73;;;24.90;86.00;;;;;;5099582;28;20644;-92
2022/07/13 05:02:59;;;;;;;3.43;2.90;;;25.00;85.60;;;;;;5097807;28;20293;-92
2022/07/13 05:05:25;;;;;;;3.87;2.87;;;25.10;85.70;;;;;;5099791;28;20284;-93
2022/07/13 05:07:51;;;;;;;3.23;2.93;;;25.10;85.30;;;;;;5097858;28;20202;-92
2022/07/13 05:10:17;;;;;;;4.20;3.03;;;25.20;85.30;;;;;;5116858;28;20621;-92
2022/07/13 05:12:43;;;;;;;3.20;2.90;;;25.20;85.70;;;;;;5099549;28;20454;-92
2022/07/13 05:15:10;;;;;;;2.87;2.67;;;25.30;85.10;;;;;;5100926;28;20170;-93
2022/07/13 05:17:36;;;;;;;3.10;2.80;;;25.30;85.50;;;;;;5103703;28;20170;-92
2022/07/13 05:20:03;;;;;;;3.20;2.90;;;25.30;84.60;;;;;;5100798;28;20252;-92
2022/07/13 05:22:30;;;;;;;3.70;3.20;;;25.30;84.70;;;;;;5101421;28;20508;-92
2022/07/13 05:24:56;;;;;;;3.97;2.80;;;25.30;84.20;;;;;;5101925;28;20224;-92
2022/07/13 05:27:23;;;;;;;3.20;2.20;;;25.30;85.20;;;;;;5100723;28;20178;-93
2022/07/13 05:29:50;;;;;;;2.87;2.20;;;25.10;74.10;;;;;;5103120;28;20162;-92
2022/07/13 05:32:16;;;;;;;2.80;2.50;;;24.90;73.20;;;;;;5101208;28;20181;-92
2022/07/13 05:34:42;;;;;;;3.17;2.10;;;24.70;80.30;;;;;;5101676;28;20167;-92
2022/07/13 05:37:08;;;;;;;3.20;2.47;;;24.80;80.50;;;;;;5100129;28;20273;-92
2022/07/13 05:39:33;;;;;;;3.50;2.30;;;24.80;78.30;;;;;;5100603;28;20448;-92
2022/07/13 05:42:00;;;;;;;2.63;2.33;;;24.70;76.00;;;;;;5099551;28;20178;-92
2022/07/13 05:44:26;;;;;;;2.50;2.30;;;24.80;80.00;;;;;;5099016;28;20174;-92
2022/07/13 05:46:52;;;;;;;2.90;2.47;;;24.90;80.20;;;;;;5100015;28;20234;-92
2022/07/13 05:49:18;;;;;;;2.47;2.27;;;24.90;78.80;;;;;;5099036;28;20233;-92
2022/07/13 05:51:44;;;;;;;2.70;2.50;;;25.00;79.30;;;;;;5099061;28;20177;-92
2022/07/13 05:54:09;;;;;;;2.60;2.40;;;25.10;79.30;;;;;;5097316;28;20381;-92
2022/07/13 05:56:35;;;;;;;2.73;2.53;;;25.10;79.10;;;;;;5098085;28;20270;-92
2022/07/13 05:59:01;;;;;;;2.60;2.40;;;25.20;79.80;;;;;;5097990;28;20177;-92
2022/07/13 06:01:27;;;;;;;2.67;2.20;;;25.20;78.20;;;;;;5097874;28;20174;-92
2022/07/13 06:03:52;;;;;;;2.57;2.33;;;25.30;77.90;;;;;;5096841;28;20284;-92
2022/07/13 06:06:18;;;;;;;2.67;2.40;;;25.40;77.30;;;;;;5097306;28;20363;-92
2022/07/13 06:08:44;;;;;;;3.17;2.33;;;25.50;76.40;;;;;;5097398;28;20201;-92
2022/07/13 06:11:10;;;;;;;2.57;2.17;;;25.60;75.70;;;;;;5098502;28;20239;-92
2022/07/13 06:13:36;;;;;;;2.80;2.53;;;25.70;74.70;;;;;;5115456;28;20166;-92
2022/07/13 06:16:02;;;;;;;2.67;2.47;;;25.80;73.40;;;;;;5097993;28;20171;-92
2022/07/13 06:18:28;;;;;;;2.30;2.07;;;26.00;72.90;;;;;;5096740;28;20276;-92
2022/07/13 06:20:55;;;;;;;2.70;2.40;;;26.20;71.10;;;;;;5096682;28;20174;-92
2022/07/13 06:23:21;;;;;;;2.30;2.10;;;26.40;69.90;;;;;;5097633;28;20274;-92
2022/07/13 06:25:47;;;;;;;2.30;2.00;;;26.60;68.40;;;;;;5097172;28;20178;-92
2022/07/13 06:28:13;;;;;;;3.20;2.17;;;26.80;67.10;;;;;;5095788;28;20217;-92
2022/07/13 06:30:39;;;;;;;2.57;2.37;;;26.80;66.90;;;;;;5096620;28;20174;-92
2022/07/13 06:33:05;;;;;;;2.47;2.27;;;26.80;66.20;;;;;;5096481;28;20253;-91
2022/07/13 06:35:31;;;;;;;2.50;2.30;;;26.80;65.70;;;;;;5097911;28;20245;-91
2022/07/13 06:37:58;;;;;;;2.53;2.33;;;26.90;63.00;;;;;;5096223;28;20238;-92
2022/07/13 06:40:25;;;;;;;2.67;2.40;;;27.10;64.10;;;;;;5097300;28;20176;-92
2022/07/13 06:42:51;;;;;;;4.13;2.40;;;27.20;63.40;;;;;;5098531;28;20197;-92
2022/07/13 06:45:17;;;;;;;3.10;2.37;;;27.30;62.70;;;;;;5098735;28;20174;-92
2022/07/13 06:47:42;;;;;;;2.40;2.20;;;27.40;62.40;;;;;;5098129;28;20190;-92
2022/07/13 06:50:09;;;;;;;2.30;2.10;;;27.40;62.20;;;;;;5096496;28;20166;-91
2022/07/13 06:52:40;;;;;;;3.50;2.10;;;27.40;62.10;;;;;;5095542;28;20198;-92
2022/07/13 06:55:09;;;;;;;2.43;2.17;;;27.30;61.80;;;;;;5096051;28;20586;-92
2022/07/13 06:57:36;;;;;;;3.00;2.20;;;27.30;62.10;;;;;;5096159;28;20162;-92
2022/07/13 07:00:04;;;;;;;2.57;2.17;;;27.30;62.10;;;;;;5095070;28;20201;-92
2022/07/13 07:02:29;;;;;;;2.10;1.90;;;27.40;61.70;;;;;;5096341;28;20169;-92
2022/07/13 07:04:55;;;;;;;2.37;2.17;;;27.50;61.10;;;;;;5093494;28;20223;-92
2022/07/13 07:07:22;;;;;;;2.37;2.17;;;27.50;61.00;;;;;;5095567;28;20243;-93
2022/07/13 07:09:48;;;;;;;4.03;2.20;;;27.50;61.00;;;;;;5094277;28;20273;-92
2022/07/13 07:12:14;;;;;;;3.90;2.10;;;27.50;60.70;;;;;;5093418;28;20171;-92
2022/07/13 07:14:40;;;;;;;2.10;2.00;;;27.50;60.90;;;;;;5093849;28;20175;-92
2022/07/13 07:17:05;;;;;;;2.00;1.90;;;27.50;60.90;;;;;;5094868;28;20166;-90
2022/07/13 07:19:32;;;;;;;3.17;2.17;;;27.50;60.20;;;;;;5094369;28;20174;-91
2022/07/13 07:21:58;;;;;;;2.10;1.90;;;27.60;60.10;;;;;;5094379;28;20178;-92
2022/07/13 07:24:24;;;;;;;2.47;2.20;;;27.70;59.80;;;;;;5094363;28;20597;-92
2022/07/13 07:26:51;;;;;;;2.43;2.23;;;27.80;59.50;;;;;;5092922;28;20679;-92
2022/07/13 07:29:18;;;;;;;3.63;2.20;;;27.90;59.00;;;;;;5093286;28;20229;-91
2022/07/13 07:31:44;;;;;;;2.23;2.03;;;27.90;59.00;;;;;;5093061;28;20171;-91
2022/07/13 07:34:09;;;;;;;2.10;1.90;;;28.00;58.80;;;;;;5093971;28;20171;-91
2022/07/13 07:36:35;;;;;;;3.40;2.00;;;28.30;57.50;;;;;;5093593;28;20535;-91
2022/07/13 07:39:01;;;;;;;2.60;2.07;;;28.70;57.50;;;;;;5094100;28;20500;-92
2022/07/13 07:41:27;;;;;;;2.40;2.20;;;28.70;57.10;;;;;;5092086;28;20618;-93
2022/07/13 07:43:52;;;;;;;1.93;1.83;;;28.70;56.90;;;;;;5111975;28;20174;-92
2022/07/13 07:46:18;;;;;;;2.37;2.00;;;28.50;56.90;;;;;;5094307;28;20174;-92
2022/07/13 07:48:44;;;;;;;2.10;1.92;;;28.90;56.80;;;;;;5093350;28;20609;-92
2022/07/13 07:51:10;;;;;;;2.55;1.90;;;29.70;55.60;;;;;;5093867;28;20170;-92
2022/07/13 07:53:36;;;;;;;3.85;2.17;;;30.40;54.70;;;;;;5092817;28;20463;-92
2022/07/13 07:56:01;;;;;;;2.78;2.10;;;31.30;53.30;;;;;;5092606;28;20171;-92
2022/07/13 07:58:27;;;;;;;2.30;2.20;;;31.40;52.60;;;;;;5092326;28;20268;-92
2022/07/13 08:00:53;;;;;;;2.75;2.17;;;32.20;51.70;;;;;;5112654;28;20189;-93
2022/07/13 08:03:19;;;;;;;2.25;2.10;;;32.10;51.30;;;;;;5096796;28;20197;-92
2022/07/13 08:05:48;;;;;;;2.30;2.10;;;31.50;51.50;;;;;;5095289;28;20178;-93
2022/07/13 08:08:14;;;;;;;2.35;2.17;;;31.00;52.00;;;;;;5096349;28;20806;-91
2022/07/13 08:10:40;;;;;;;3.25;2.08;;;30.50;52.60;;;;;;5096331;28;20201;-92
2022/07/13 08:13:06;;;;;;;2.40;2.20;;;30.10;53.00;;;;;;5096412;28;20201;-92
2022/07/13 08:15:33;;;;;;;1.77;1.67;;;29.80;53.50;;;;;;5095890;28;20566;-92
2022/07/13 08:17:59;;;;;;;3.72;2.30;;;29.90;53.60;;;;;;5094855;28;20178;-90
2022/07/13 08:20:26;;;;;;;3.22;2.05;;;29.90;53.60;;;;;;5095372;28;20174;-92
2022/07/13 08:22:52;;;;;;;2.47;2.10;;;29.90;53.50;;;;;;5096147;28;20265;-93
2022/07/13 08:25:18;;;;;;;4.25;2.03;;;29.80;53.50;;;;;;5096062;28;20439;-92
2022/07/13 08:27:44;;;;;;;3.10;2.20;;;29.70;53.60;;;;;;5095431;28;20293;-92
2022/07/13 08:30:11;;;;;;;2.67;2.05;;;29.50;53.70;;;;;;5094737;28;20277;-91
2022/07/13 08:32:40;;;;;;;2.85;2.13;;;29.50;53.90;;;;;;5092992;28;20517;-92
2022/07/13 08:40:43;;;;;;;2.20;2.00;;;29.20;54.40;;;;;;5112297;28;20387;-92
2022/07/13 08:43:09;;;;;;;2.65;2.08;;;29.20;54.40;;;;;;5094991;28;20178;-92
2022/07/13 08:45:35;;;;;;;2.72;2.20;;;29.10;54.60;;;;;;5112149;28;20334;-92
2022/07/13 08:48:05;;;;;;;2.75;2.10;;;29.00;54.50;;;;;;5111348;28;20206;-92
2022/07/13 08:50:32;;;;;;;2.30;1.95;;;29.00;54.80;;;;;;5093795;28;20173;-92
2022/07/13 08:52:59;;;;;;;3.47;2.30;;;29.00;54.70;;;;;;5095776;28;20169;-92
2022/07/13 08:55:26;;;;;;;2.30;2.10;;;29.20;54.70;;;;;;5095285;28;20177;-92
2022/07/13 08:57:52;;;;;;;3.28;2.25;;;29.20;54.60;;;;;;5113744;28;20185;-92
2022/07/13 09:00:21;;;;;;;2.28;2.08;;;29.20;54.60;;;;;;5094173;28;20226;-92
2022/07/13 09:09:33;;;;;;;2.63;2.30;;;29.10;54.90;;;;;;5111493;28;20391;-92
2022/07/13 09:12:17;;;;;;;2.35;2.00;;;29.20;54.70;;;;;;5092952;28;20174;-92
2022/07/13 09:14:56;;;;;;;3.70;2.00;;;29.80;54.30;;;;;;5094035;28;20383;-93
2022/07/13 09:17:40;;;;;;;3.88;2.50;;;30.10;53.50;;;;;;5094059;28;20189;-92
2022/07/13 09:20:17;;;;;;;6.63;2.28;;;30.10;53.40;;;;;;5094267;28;20166;-92
2022/07/13 09:22:53;;;;;;;2.40;2.20;;;30.00;53.40;;;;;;5094655;28;20174;-92
2022/07/13 09:25:28;;;;;;;2.45;2.17;;;30.00;53.60;;;;;;5093916;28;20231;-92
2022/07/13 09:27:54;;;;;;;2.45;2.20;;;30.10;53.50;;;;;;5111808;28;20190;-92
2022/07/13 09:30:29;;;;;;;2.78;2.15;;;30.10;53.40;;;;;;5094077;28;20461;-91
2022/07/13 09:32:57;;;;;;;2.55;2.00;;;30.20;53.40;;;;;;5094628;28;20478;-92
2022/07/13 09:35:45;;;;;;;3.05;2.40;;;30.20;53.30;;;;;;5095528;28;20176;-91
2022/07/13 09:38:31;;;;;;;3.33;2.05;;;30.00;53.40;;;;;;5095120;28;20306;-91
2022/07/13 09:41:14;;;;;;;2.63;2.38;;;29.90;53.60;;;;;;5094875;28;20257;-91
2022/07/13 09:46:58;;;;;;;4.00;2.30;;;29.80;53.90;;;;;;5113357;28;20445;-93
2022/07/13 09:49:37;;;;;;;3.22;2.40;;;29.90;53.90;;;;;;5094428;28;20216;-92
2022/07/13 09:52:06;;;;;;;3.50;2.20;;;29.90;53.70;;;;;;5092218;28;20177;-92
2022/07/13 09:54:34;;;;;;;3.22;2.40;;;29.90;53.70;;;;;;5094061;28;20181;-92
2022/07/13 09:57:03;;;;;;;3.92;2.25;;;30.00;53.80;;;;;;5093887;28;20171;-92
2022/07/13 09:59:29;;;;;;;3.70;2.33;;;29.90;53.80;;;;;;5094629;28;20181;-91
2022/07/13 10:01:56;;;;;;;5.47;2.85;;;30.00;53.80;;;;;;5095127;28;20547;-91
2022/07/13 10:04:23;;;;;;;3.92;2.38;;;30.00;53.70;;;;;;5092452;28;20471;-92
2022/07/13 10:06:50;;;;;;;3.15;2.30;;;30.00;53.70;;;;;;5093703;28;20177;-92
2022/07/13 10:09:25;;;;;;;5.93;2.70;;;30.00;53.70;;;;;;5092959;28;20212;-92
2022/07/13 10:11:52;;;;;;;6.68;2.40;;;30.00;53.40;;;;;;5093389;28;20226;-92
2022/07/13 10:14:18;;;;;;;3.95;2.20;;;29.90;54.20;;;;;;5092759;28;20418;-91
2022/07/13 10:16:45;;;;;;;5.63;2.40;;;29.90;54.40;;;;;;5092700;28;20768;-92
2022/07/13 10:19:12;;;;;;;6.10;2.30;;;29.90;54.40;;;;;;5093484;28;20273;-92
2022/07/13 10:22:03;;;;;;;3.85;2.35;;;29.90;54.40;;;;;;5092729;28;20181;-92
2022/07/13 10:24:29;;;;;;;3.10;2.35;;;29.90;54.20;;;;;;5091296;28;20231;-91
2022/07/13 10:27:28;;;;;;;9.60;2.58;;;30.00;54.10;;;;;;5092592;28;20178;-92
2022/07/13 10:30:03;;;;;;;5.43;2.40;;;30.00;54.10;;;;;;5093118;28;20306;-93
2022/07/13 10:32:31;;;;;;;3.17;2.30;;;29.90;54.10;;;;;;5093038;28;20170;-92
2022/07/13 10:35:09;;;;;;;3.58;2.22;;;29.90;54.20;;;;;;5092364;28;20171;-91
2022/07/13 10:37:58;;;;;;;5.35;2.20;;;30.00;54.20;;;;;;5095460;28;20206;-93
2022/07/13 10:40:26;;;;;;;3.95;2.50;;;30.00;54.10;;;;;;5093422;28;20339;-91
2022/07/13 10:42:58;;;;;;;3.05;2.20;;;30.00;54.10;;;;;;5093961;28;20582;-92
2022/07/13 10:45:39;;;;;;;5.57;2.40;;;30.00;54.00;;;;;;5092453;28;20162;-92
2022/07/13 10:48:22;;;;;;;3.40;2.35;;;30.10;54.10;;;;;;5093613;28;20201;-93
2022/07/13 10:50:54;;;;;;;3.50;2.53;;;30.10;54.10;;;;;;5093084;28;20578;-92
2022/07/13 10:53:21;;;;;;;2.60;2.40;;;30.10;54.00;;;;;;5092355;28;20538;-92
2022/07/13 10:55:51;;;;;;;4.60;2.35;;;30.10;54.00;;;;;;5091427;28;20265;-92
2022/07/13 10:58:41;;;;;;;4.38;1.95;;;30.10;54.00;;;;;;5092986;28;20178;-93
2022/07/13 11:01:44;;;;;;;3.22;2.20;;;30.10;54.00;;;;;;5079441;28;20181;-93
2022/07/13 11:04:14;;;;;;;4.28;2.40;;;30.20;54.00;;;;;;5092253;28;20186;-93
2022/07/13 11:06:40;;;;;;;3.17;2.30;;;30.20;53.90;;;;;;5092381;28;20178;-93
2022/07/13 11:09:10;;;;;;;4.43;2.40;;;30.20;53.90;;;;;;5092954;28;20206;-91
2022/07/13 11:11:44;;;;;;;2.60;2.40;;;30.20;53.90;;;;;;5090274;28;20163;-92
2022/07/13 11:14:39;;;;;;;2.30;2.10;;;30.30;53.90;;;;;;5091022;28;20423;-91
2022/07/13 11:17:15;;;;;;;4.05;2.42;;;30.30;53.90;;;;;;5091107;28;20253;-92
2022/07/13 11:19:53;;;;;;;2.65;2.30;;;30.30;53.90;;;;;;5091486;28;20343;-91
2022/07/13 11:22:20;;;;;;;3.08;2.33;;;30.20;53.90;;;;;;5089963;28;20170;-92
2022/07/13 11:25:14;;;;;;;3.72;2.38;;;30.20;54.10;;;;;;5091101;28;20237;-91
2022/07/13 11:28:23;;;;;;;2.47;2.28;;;30.10;54.20;;;;;;5089733;28;20252;-92
2022/07/13 11:30:55;;;;;;;3.58;2.10;;;30.00;54.30;;;;;;5079194;28;20174;-92
2022/07/13 11:33:21;;;;;;;3.78;2.40;;;30.00;54.50;;;;;;5089367;28;20170;-92
2022/07/13 11:35:48;;;;;;;6.55;2.35;;;29.90;54.60;;;;;;5090403;28;20537;-92
2022/07/13 11:38:16;;;;;;;4.43;2.20;;;29.90;54.60;;;;;;5092052;28;20181;-92
2022/07/13 11:40:43;;;;;;;3.38;2.30;;;29.80;54.70;;;;;;5108688;28;20204;-92
2022/07/13 11:43:10;;;;;;;2.80;2.13;;;29.80;54.70;;;;;;5091237;28;20189;-93
2022/07/13 11:45:40;;;;;;;3.90;2.53;;;29.80;54.90;;;;;;5093023;28;20230;-92
2022/07/13 11:48:12;;;;;;;2.67;2.10;;;29.80;54.90;;;;;;5092304;28;20224;-91
2022/07/13 11:50:50;;;;;;;3.45;2.25;;;29.90;55.00;;;;;;5092097;28;20600;-92
2022/07/13 11:53:24;;;;;;;3.33;2.13;;;30.00;54.90;;;;;;5090931;28;20615;-91
2022/07/13 11:55:51;;;;;;;2.45;2.25;;;30.00;54.90;;;;;;5090777;28;20170;-91
2022/07/13 11:58:28;;;;;;;2.30;2.10;;;29.90;54.90;;;;;;5092545;28;20442;-91
2022/07/13 12:00:54;;;;;;;3.33;2.00;;;30.00;54.80;;;;;;5108256;28;20162;-92
2022/07/13 12:03:28;;;;;;;2.35;2.08;;;30.10;54.80;;;;;;5090024;28;20481;-92
2022/07/13 12:06:02;;;;;;;4.10;2.13;;;30.20;54.80;;;;;;5091640;28;20166;-92
2022/07/13 12:08:31;;;;;;;5.18;2.50;;;30.20;54.70;;;;;;5089864;28;20312;-92
2022/07/13 12:10:56;;;;;;;3.05;2.53;;;30.20;54.70;;;;;;5090176;28;20562;-91
2022/07/13 12:13:23;;;;;;;2.67;2.22;;;30.30;54.70;;;;;;5091675;28;20228;-91
2022/07/13 12:15:49;;;;;;;3.78;2.50;;;30.30;54.70;;;;;;5092554;28;20182;-92
2022/07/13 12:18:15;;;;;;;2.95;2.40;;;30.40;54.70;;;;;;5091111;28;20170;-92
2022/07/13 12:20:41;;;;;;;3.20;2.30;;;30.40;54.80;;;;;;5090467;28;20230;-91
2022/07/13 12:23:07;;;;;;;3.20;2.60;;;30.30;54.80;;;;;;5089969;28;20177;-91
2022/07/13 12:25:35;;;;;;;4.57;2.40;;;30.30;55.30;;;;;;5091863;28;20174;-92
2022/07/13 12:28:08;;;;;;;2.63;2.10;;;30.20;55.00;;;;;;5092338;28;20210;-92
2022/07/13 12:30:37;;;;;;;3.63;2.40;;;30.30;55.00;;;;;;5091194;28;20284;-92
2022/07/13 12:33:11;;;;;;;2.85;2.15;;;30.30;55.00;;;;;;5090858;28;20170;-91
2022/07/13 12:35:41;;;;;;;2.92;2.25;;;30.40;55.00;;;;;;5092161;28;20260;-92
2022/07/13 12:38:12;;;;;;;3.70;2.42;;;30.40;55.00;;;;;;5092243;28;20297;-91
2022/07/13 12:40:46;;;;;;;2.72;2.45;;;30.30;55.10;;;;;;5090580;28;20170;-91
2022/07/13 12:43:19;;;;;;;3.40;2.40;;;30.40;55.20;;;;;;5090503;28;20521;-91
2022/07/13 12:45:51;;;;;;;2.83;2.30;;;30.30;55.10;;;;;;5090424;28;20178;-92
2022/07/13 12:48:19;;;;;;;2.70;2.17;;;30.30;55.20;;;;;;5091747;28;20510;-92
2022/07/13 12:51:06;;;;;;;2.60;2.40;;;30.30;55.20;;;;;;5094364;28;20220;-92
2022/07/13 12:53:56;;;;;;;4.22;2.38;;;30.30;55.00;;;;;;5095290;28;20425;-92
2022/07/13 12:56:47;;;;;;;5.63;2.60;;;30.40;55.10;;;;;;5112848;28;20395;-92
2022/07/13 12:59:17;;;;;;;2.78;2.17;;;30.40;55.10;;;;;;5096349;28;20178;-92
2022/07/13 13:01:44;;;;;;;2.75;2.17;;;30.40;55.50;;;;;;5094400;28;20179;-92
2022/07/13 13:04:11;;;;;;;4.25;2.08;;;30.40;55.20;;;;;;5112679;28;20243;-92
2022/07/13 13:06:42;;;;;;;3.83;2.08;;;30.40;55.10;;;;;;5094317;28;20342;-92
2022/07/13 13:09:12;;;;;;;3.03;2.30;;;30.40;55.10;;;;;;5094031;28;20206;-92